Time;durP1;ratioP1;P1;durP2;ratioP2;P2;SDS_P1;SDS_P2;PMS_P1;PMS_P2;Temp;Humidity;BMP_temperature;BMP_pressure;BME280_temperature;BME280_humidity;BME280_pressure;Samples;Min_cycle;Max_cycle;Signal;HPM_P1;HPM_P2
2022/07/15 00:02:38;;;;;;;4.95;2.78;;;;;;;;;;5009046;28;20037;-70
2022/07/15 00:05:24;;;;;;;6.13;2.83;;;;;;;;;;4991690;28;20073;-71
2022/07/15 00:08:10;;;;;;;4.20;2.45;;;;;;;;;;4983974;28;20031;-71
2022/07/15 00:10:55;;;;;;;5.75;2.80;;;;;;;;;;4990716;28;20030;-71
2022/07/15 00:13:41;;;;;;;10.25;2.67;;;;;;;;;;4998996;28;20097;-72
2022/07/15 00:16:27;;;;;;;3.50;2.40;;;;;;;;;;4964787;28;20031;-63
2022/07/15 00:19:12;;;;;;;3.70;2.05;;;;;;;;;;4975086;28;20038;-71
2022/07/15 00:21:58;;;;;;;3.80;2.30;;;;;;;;;;4982510;28;20380;-61
2022/07/15 00:24:43;;;;;;;6.25;2.83;;;;;;;;;;4990952;28;20030;-59
2022/07/15 00:27:29;;;;;;;6.25;2.78;;;;;;;;;;5001198;28;20033;-58
2022/07/15 00:30:15;;;;;;;7.65;2.78;;;;;;;;;;5012224;28;20040;-58
2022/07/15 00:33:01;;;;;;;6.00;2.58;;;;;;;;;;5002230;28;20037;-57
2022/07/15 00:35:47;;;;;;;6.95;2.55;;;;;;;;;;5012609;28;20027;-65
2022/07/15 00:38:32;;;;;;;6.05;2.30;;;;;;;;;;5012607;28;20116;-61
2022/07/15 00:41:18;;;;;;;5.03;2.78;;;;;;;;;;5007258;28;20631;-63
2022/07/15 00:44:04;;;;;;;6.68;2.50;;;;;;;;;;5015507;28;20050;-62
2022/07/15 00:46:50;;;;;;;5.00;2.55;;;;;;;;;;5014274;28;20100;-62
2022/07/15 00:49:36;;;;;;;4.70;2.58;;;;;;;;;;5010732;28;20116;-64
2022/07/15 00:52:22;;;;;;;4.60;2.53;;;;;;;;;;5015418;28;20033;-63
2022/07/15 00:55:09;;;;;;;5.45;2.67;;;;;;;;;;4997104;28;20394;-61
2022/07/15 00:57:56;;;;;;;4.60;2.47;;;;;;;;;;5005553;28;20034;-65
2022/07/15 01:00:43;;;;;;;5.20;2.67;;;;;;;;;;5005158;28;20034;-65
2022/07/15 01:03:31;;;;;;;3.08;2.00;;;;;;;;;;5011674;28;20065;-64
2022/07/15 01:06:16;;;;;;;5.57;2.30;;;;;;;;;;4995418;28;20026;-64
2022/07/15 01:09:02;;;;;;;4.90;2.45;;;;;;;;;;4999202;28;20029;-63
2022/07/15 01:11:48;;;;;;;5.93;2.72;;;;;;;;;;4991470;28;20050;-63
2022/07/15 01:14:34;;;;;;;5.10;2.97;;;;;;;;;;4995238;28;20045;-63
2022/07/15 01:17:19;;;;;;;5.68;2.40;;;;;;;;;;4997997;28;20041;-61
2022/07/15 01:20:05;;;;;;;4.85;2.53;;;;;;;;;;4997409;28;20566;-64
2022/07/15 01:22:51;;;;;;;4.25;2.30;;;;;;;;;;5003872;28;20036;-65
2022/07/15 01:25:36;;;;;;;5.40;2.85;;;;;;;;;;5011873;28;20040;-62
2022/07/15 01:28:22;;;;;;;8.82;2.58;;;;;;;;;;5000176;28;20123;-62
2022/07/15 01:31:08;;;;;;;5.40;2.72;;;;;;;;;;5005109;28;20045;-75
2022/07/15 01:33:54;;;;;;;4.07;2.65;;;;;;;;;;4975499;28;20091;-62
2022/07/15 01:36:39;;;;;;;8.32;2.45;;;;;;;;;;4963529;28;20288;-62
2022/07/15 01:39:25;;;;;;;3.58;2.30;;;;;;;;;;4965950;28;20380;-62
2022/07/15 01:42:11;;;;;;;5.18;2.65;;;;;;;;;;4961755;28;20407;-62
2022/07/15 01:44:56;;;;;;;5.05;2.42;;;;;;;;;;4962332;28;20040;-63
2022/07/15 01:47:46;;;;;;;4.68;2.55;;;;;;;;;;4978774;28;20049;-62
2022/07/15 01:50:32;;;;;;;6.20;2.88;;;;;;;;;;4964389;28;20505;-75
2022/07/15 01:53:17;;;;;;;4.20;2.10;;;;;;;;;;4964493;28;20413;-63
2022/07/15 01:56:03;;;;;;;5.95;2.33;;;;;;;;;;4970591;28;20036;-64
2022/07/15 01:58:49;;;;;;;5.22;2.10;;;;;;;;;;4977029;28;20093;-63
2022/07/15 02:01:35;;;;;;;3.97;2.17;;;;;;;;;;4982276;28;20034;-69
2022/07/15 02:04:21;;;;;;;5.25;2.65;;;;;;;;;;4985099;28;20724;-64
2022/07/15 02:07:07;;;;;;;4.78;2.92;;;;;;;;;;4939076;28;20055;-62
2022/07/15 02:09:52;;;;;;;8.07;2.85;;;;;;;;;;4909137;28;20027;-65
2022/07/15 02:12:38;;;;;;;6.13;2.80;;;;;;;;;;4948081;28;20485;-66
2022/07/15 02:15:23;;;;;;;5.07;2.70;;;;;;;;;;4961272;28;20061;-65
2022/07/15 02:18:10;;;;;;;4.28;2.75;;;;;;;;;;4954292;28;20038;-65
2022/07/15 02:20:55;;;;;;;5.53;2.78;;;;;;;;;;4935775;28;20039;-64
2022/07/15 02:23:41;;;;;;;2.70;1.98;;;;;;;;;;4928148;28;20094;-64
2022/07/15 02:26:27;;;;;;;4.82;2.17;;;;;;;;;;4947113;28;20035;-68
2022/07/15 02:29:12;;;;;;;7.50;2.72;;;;;;;;;;4945196;28;20043;-65
2022/07/15 02:31:58;;;;;;;4.43;2.47;;;;;;;;;;4973556;28;20457;-65
2022/07/15 02:34:44;;;;;;;7.10;2.28;;;;;;;;;;4966078;28;20035;-65
2022/07/15 02:37:29;;;;;;;8.52;2.63;;;;;;;;;;4956448;28;20045;-63
2022/07/15 02:40:15;;;;;;;3.92;2.45;;;;;;;;;;4965589;28;20039;-66
2022/07/15 02:43:01;;;;;;;4.07;2.40;;;;;;;;;;4997708;28;20033;-66
2022/07/15 02:45:47;;;;;;;3.63;2.40;;;;;;;;;;4978298;28;20035;-74
2022/07/15 02:48:33;;;;;;;6.13;2.42;;;;;;;;;;4967982;28;20030;-74
2022/07/15 02:51:18;;;;;;;4.32;2.50;;;;;;;;;;4987538;28;20070;-76
2022/07/15 02:54:04;;;;;;;5.47;2.67;;;;;;;;;;4960486;28;20073;-75
2022/07/15 02:56:49;;;;;;;4.35;2.25;;;;;;;;;;4956867;28;20076;-73
2022/07/15 02:59:35;;;;;;;6.10;2.42;;;;;;;;;;4970201;28;20261;-75
2022/07/15 03:02:21;;;;;;;5.55;2.20;;;;;;;;;;4990592;28;20049;-64
2022/07/15 03:05:07;;;;;;;7.30;2.40;;;;;;;;;;4950726;28;20260;-65
2022/07/15 03:07:52;;;;;;;5.10;2.33;;;;;;;;;;4965194;28;20493;-65
2022/07/15 03:10:38;;;;;;;5.25;2.65;;;;;;;;;;4992848;28;20041;-65
2022/07/15 03:13:25;;;;;;;6.88;2.55;;;;;;;;;;4982754;28;20104;-65
2022/07/15 03:16:10;;;;;;;4.45;2.33;;;;;;;;;;4969444;28;20422;-64
2022/07/15 03:18:56;;;;;;;6.13;3.10;;;;;;;;;;4980872;28;20030;-64
2022/07/15 03:21:42;;;;;;;5.22;2.65;;;;;;;;;;4951672;28;20066;-74
2022/07/15 03:24:27;;;;;;;5.57;2.72;;;;;;;;;;4963610;28;20045;-57
2022/07/15 03:27:14;;;;;;;5.68;2.40;;;;;;;;;;4987796;28;20099;-60
2022/07/15 03:30:00;;;;;;;4.68;2.47;;;;;;;;;;4997461;28;20026;-58
2022/07/15 03:32:46;;;;;;;6.68;2.80;;;;;;;;;;4992549;28;20033;-66
2022/07/15 03:35:32;;;;;;;4.40;2.65;;;;;;;;;;5019200;28;20041;-57
2022/07/15 03:38:17;;;;;;;5.88;3.10;;;;;;;;;;5013932;28;20036;-60
2022/07/15 03:41:03;;;;;;;4.03;2.22;;;;;;;;;;5014398;28;20033;-74
2022/07/15 03:43:48;;;;;;;3.92;2.10;;;;;;;;;;5008446;28;20034;-65
2022/07/15 03:46:34;;;;;;;3.38;2.38;;;;;;;;;;5008915;28;20040;-64
2022/07/15 03:49:20;;;;;;;4.70;2.50;;;;;;;;;;4957444;28;20130;-64
2022/07/15 03:52:05;;;;;;;4.53;2.38;;;;;;;;;;4958562;28;20121;-64
2022/07/15 03:54:51;;;;;;;6.18;2.22;;;;;;;;;;4970608;28;20046;-64
2022/07/15 03:57:37;;;;;;;4.28;2.65;;;;;;;;;;4965588;28;20062;-62
2022/07/15 04:00:23;;;;;;;3.65;2.25;;;;;;;;;;4988684;28;20065;-74
2022/07/15 04:03:08;;;;;;;5.40;2.63;;;;;;;;;;4969975;28;20061;-75
2022/07/15 04:05:54;;;;;;;5.15;2.85;;;;;;;;;;4974084;28;20035;-76
2022/07/15 04:08:40;;;;;;;4.93;2.65;;;;;;;;;;4968809;28;20022;-75
2022/07/15 04:11:25;;;;;;;5.28;2.50;;;;;;;;;;4985256;28;20042;-76
2022/07/15 04:14:12;;;;;;;5.00;3.05;;;;;;;;;;4964173;28;20142;-77
2022/07/15 04:16:57;;;;;;;4.25;2.40;;;;;;;;;;4967689;28;20031;-56
2022/07/15 04:19:43;;;;;;;6.05;2.47;;;;;;;;;;4994946;28;20466;-65
2022/07/15 04:22:29;;;;;;;5.95;2.90;;;;;;;;;;4962998;28;20065;-64
2022/07/15 04:25:16;;;;;;;4.72;2.63;;;;;;;;;;4956013;28;20054;-64
2022/07/15 04:28:02;;;;;;;4.38;2.65;;;;;;;;;;4927731;28;20033;-64
2022/07/15 04:30:48;;;;;;;4.57;2.70;;;;;;;;;;4960134;28;20027;-65
2022/07/15 04:33:33;;;;;;;5.30;2.72;;;;;;;;;;4961742;28;20039;-63
2022/07/15 04:36:19;;;;;;;7.88;3.00;;;;;;;;;;4975177;28;20053;-65
2022/07/15 04:39:04;;;;;;;4.43;2.42;;;;;;;;;;4974880;28;20113;-55
2022/07/15 04:41:51;;;;;;;4.65;2.88;;;;;;;;;;4968172;28;20385;-55
2022/07/15 04:44:37;;;;;;;6.28;3.05;;;;;;;;;;4945493;28;20041;-58
2022/07/15 04:47:22;;;;;;;6.50;2.58;;;;;;;;;;4958649;28;20129;-56
2022/07/15 04:53:12;;;;;;;5.82;2.72;;;;;;;;;;4945848;28;20082;-55
2022/07/15 04:55:58;;;;;;;5.95;2.65;;;;;;;;;;4937553;28;20045;-64
2022/07/15 04:58:44;;;;;;;7.90;2.90;;;;;;;;;;4940842;28;20398;-65
2022/07/15 05:01:29;;;;;;;8.18;2.80;;;;;;;;;;4951760;28;20396;-63
2022/07/15 05:04:15;;;;;;;4.22;2.50;;;;;;;;;;4953577;28;20114;-64
2022/07/15 05:07:01;;;;;;;6.40;3.13;;;;;;;;;;4961267;28;20022;-68
2022/07/15 05:09:46;;;;;;;4.43;2.50;;;;;;;;;;4980994;28;20109;-64
2022/07/15 05:12:32;;;;;;;6.50;2.90;;;;;;;;;;4965000;28;20092;-63
2022/07/15 05:15:18;;;;;;;7.60;2.80;;;;;;;;;;4959315;28;20035;-64
2022/07/15 05:18:04;;;;;;;6.18;2.67;;;;;;;;;;4952285;28;20102;-64
2022/07/15 05:20:50;;;;;;;4.43;2.78;;;;;;;;;;4963545;28;20470;-65
2022/07/15 05:23:36;;;;;;;7.53;3.30;;;;;;;;;;4938279;28;20039;-64
2022/07/15 05:26:21;;;;;;;4.22;2.65;;;;;;;;;;4934608;28;20121;-64
2022/07/15 05:29:07;;;;;;;4.82;2.53;;;;;;;;;;4963318;28;20284;-63
2022/07/15 05:31:53;;;;;;;4.03;2.40;;;;;;;;;;4976703;28;20038;-72
2022/07/15 05:34:38;;;;;;;5.15;2.85;;;;;;;;;;5004051;28;20025;-63
2022/07/15 05:37:24;;;;;;;5.43;3.13;;;;;;;;;;4972288;28;20149;-62
2022/07/15 05:40:10;;;;;;;4.60;2.50;;;;;;;;;;4946007;28;20187;-62
2022/07/15 05:42:56;;;;;;;5.88;2.72;;;;;;;;;;4940279;28;20031;-66
2022/07/15 05:45:41;;;;;;;4.10;2.60;;;;;;;;;;4952678;28;20044;-63
2022/07/15 05:48:27;;;;;;;5.78;2.50;;;;;;;;;;4950497;28;20049;-61
2022/07/15 05:51:12;;;;;;;8.25;2.42;;;;;;;;;;4973363;28;20050;-63
2022/07/15 05:53:58;;;;;;;5.93;3.10;;;;;;;;;;4996076;28;20393;-63
2022/07/15 05:56:43;;;;;;;7.97;2.67;;;;;;;;;;4996279;28;20031;-63
2022/07/15 05:59:29;;;;;;;4.53;2.33;;;;;;;;;;4968071;28;20394;-70
2022/07/15 06:02:15;;;;;;;6.78;2.72;;;;;;;;;;4961220;28;20042;-69
2022/07/15 06:05:00;;;;;;;6.40;3.10;;;;;;;;;;4989529;28;20034;-69
2022/07/15 06:07:46;;;;;;;6.05;2.75;;;;;;;;;;5002169;28;20057;-69
2022/07/15 06:10:32;;;;;;;5.47;2.60;;;;;;;;;;5005431;28;20037;-62
2022/07/15 06:13:19;;;;;;;6.05;3.15;;;;;;;;;;4978107;28;20470;-64
2022/07/15 06:16:06;;;;;;;7.55;2.83;;;;;;;;;;4978677;28;20538;-62
2022/07/15 06:18:52;;;;;;;4.60;2.47;;;;;;;;;;4974491;28;20061;-61
2022/07/15 06:21:37;;;;;;;7.68;2.70;;;;;;;;;;4995133;28;20550;-66
2022/07/15 06:24:23;;;;;;;7.43;2.42;;;;;;;;;;4993536;28;20489;-72
2022/07/15 06:27:08;;;;;;;4.25;2.53;;;;;;;;;;4999409;28;20132;-75
2022/07/15 06:29:54;;;;;;;7.10;2.40;;;;;;;;;;5012199;28;21973;-74
2022/07/15 06:32:40;;;;;;;6.45;2.60;;;;;;;;;;5010278;28;20056;-72
2022/07/15 06:35:25;;;;;;;7.13;3.78;;;;;;;;;;5005284;28;20038;-69
2022/07/15 06:38:11;;;;;;;7.25;2.58;;;;;;;;;;5010140;28;20607;-72
2022/07/15 06:40:57;;;;;;;6.13;2.50;;;;;;;;;;5008899;28;20030;-72
2022/07/15 06:43:45;;;;;;;9.73;3.10;;;;;;;;;;5010621;28;20025;-64
2022/07/15 06:46:31;;;;;;;4.32;1.95;;;;;;;;;;5010738;28;20116;-68
2022/07/15 06:49:16;;;;;;;4.65;2.25;;;;;;;;;;5013196;28;20037;-68
2022/07/15 06:52:02;;;;;;;6.32;2.20;;;;;;;;;;4996904;28;20438;-66
2022/07/15 06:54:48;;;;;;;3.30;1.77;;;;;;;;;;4993036;28;20045;-67
2022/07/15 06:57:33;;;;;;;7.18;2.22;;;;;;;;;;4995721;28;20373;-69
2022/07/15 07:00:19;;;;;;;4.80;2.25;;;;;;;;;;4996960;28;20141;-69
2022/07/15 07:03:04;;;;;;;7.07;2.25;;;;;;;;;;5001725;28;20091;-66
2022/07/15 07:05:50;;;;;;;4.97;1.90;;;;;;;;;;4978893;28;20049;-64
2022/07/15 07:08:36;;;;;;;4.00;2.10;;;;;;;;;;4983362;28;20026;-62
2022/07/15 07:11:21;;;;;;;6.90;2.38;;;;;;;;;;4977278;28;20044;-62
2022/07/15 07:14:07;;;;;;;3.50;1.90;;;;;;;;;;4977680;28;20489;-63
2022/07/15 07:16:52;;;;;;;4.85;2.25;;;;;;;;;;4978123;28;20033;-64
2022/07/15 07:19:38;;;;;;;5.70;1.88;;;;;;;;;;4991842;28;20026;-67
2022/07/15 07:22:24;;;;;;;6.75;2.20;;;;;;;;;;5005069;28;20665;-63
2022/07/15 07:25:09;;;;;;;5.53;2.55;;;;;;;;;;5010669;28;20131;-71
2022/07/15 07:27:55;;;;;;;4.63;2.20;;;;;;;;;;5015285;28;20205;-71
2022/07/15 07:30:41;;;;;;;3.83;2.38;;;;;;;;;;5006334;28;20096;-73
2022/07/15 07:33:26;;;;;;;4.47;2.35;;;;;;;;;;4998994;28;20113;-71
2022/07/15 07:36:12;;;;;;;6.20;2.47;;;;;;;;;;4978318;28;20034;-72
2022/07/15 07:38:57;;;;;;;5.68;2.25;;;;;;;;;;5013614;28;20029;-70
2022/07/15 07:41:43;;;;;;;8.18;1.90;;;;;;;;;;4987752;28;20025;-63
2022/07/15 07:44:29;;;;;;;5.88;2.03;;;;;;;;;;4991113;28;20049;-63
2022/07/15 07:47:14;;;;;;;4.40;2.10;;;;;;;;;;5002746;28;20046;-61
2022/07/15 07:50:00;;;;;;;4.28;1.90;;;;;;;;;;5011454;28;20030;-61
2022/07/15 07:52:46;;;;;;;4.32;1.73;;;;;;;;;;5013847;28;20116;-61
2022/07/15 07:55:31;;;;;;;6.43;2.17;;;;;;;;;;5012728;28;20465;-60
2022/07/15 07:58:17;;;;;;;3.83;2.20;;;;;;;;;;5017452;28;20400;-62
2022/07/15 08:01:03;;;;;;;9.40;2.63;;;;;;;;;;5014880;28;20480;-66
2022/07/15 08:03:50;;;;;;;5.22;2.30;;;;;;;;;;5015103;28;20109;-66
2022/07/15 08:06:38;;;;;;;5.55;1.90;;;;;;;;;;5006936;28;20036;-69
2022/07/15 08:09:23;;;;;;;6.03;2.03;;;;;;;;;;5014423;28;20089;-66
2022/07/15 08:12:09;;;;;;;7.15;3.33;;;;;;;;;;5009568;28;20033;-66
2022/07/15 08:14:54;;;;;;;3.35;2.10;;;;;;;;;;5011029;28;20030;-72
2022/07/15 08:17:40;;;;;;;6.55;1.90;;;;;;;;;;5003555;28;20038;-61
2022/07/15 08:20:26;;;;;;;6.90;2.13;;;;;;;;;;5017094;28;31691;-67
2022/07/15 08:23:11;;;;;;;2.88;1.83;;;;;;;;;;5013413;28;20048;-70
2022/07/15 08:25:57;;;;;;;4.43;1.90;;;;;;;;;;5013128;28;20049;-71
2022/07/15 08:28:43;;;;;;;8.75;1.50;;;;;;;;;;5012034;28;20511;-69
2022/07/15 08:31:28;;;;;;;3.90;1.65;;;;;;;;;;5014725;28;20419;-70
2022/07/15 08:34:14;;;;;;;7.43;2.40;;;;;;;;;;4998066;28;20038;-61
2022/07/15 08:37:00;;;;;;;5.90;2.10;;;;;;;;;;5002688;28;20073;-74
2022/07/15 08:39:45;;;;;;;3.70;1.92;;;;;;;;;;5010850;28;20049;-75
2022/07/15 08:42:31;;;;;;;4.40;2.05;;;;;;;;;;5006192;28;20101;-76
2022/07/15 08:45:17;;;;;;;6.30;1.65;;;;;;;;;;4996030;28;20038;-75
2022/07/15 08:48:03;;;;;;;3.22;1.55;;;;;;;;;;5003230;28;20083;-72
2022/07/15 08:50:49;;;;;;;4.90;2.17;;;;;;;;;;5009526;28;20096;-75
2022/07/15 08:53:35;;;;;;;4.65;1.80;;;;;;;;;;5000611;28;20072;-66
2022/07/15 08:56:21;;;;;;;3.20;1.90;;;;;;;;;;5009447;28;20045;-71
2022/07/15 08:59:07;;;;;;;5.55;2.10;;;;;;;;;;5009109;28;20104;-72
2022/07/15 09:01:53;;;;;;;5.07;1.90;;;;;;;;;;4993413;28;20487;-68
2022/07/15 09:04:57;;;;;;;2.55;1.48;;;;;;;;;;4962636;28;20066;-70
2022/07/15 09:07:57;;;;;;;5.65;2.10;;;;;;;;;;4989155;28;20465;-72
2022/07/15 09:10:42;;;;;;;4.78;1.67;;;;;;;;;;4977134;28;20042;-62
2022/07/15 09:13:30;;;;;;;6.35;2.25;;;;;;;;;;4972844;28;20022;-61
2022/07/15 09:16:21;;;;;;;5.15;2.00;;;;;;;;;;4983162;28;20061;-60
2022/07/15 09:19:07;;;;;;;6.05;2.20;;;;;;;;;;4998488;28;20491;-59
2022/07/15 09:22:01;;;;;;;4.60;1.52;;;;;;;;;;4966384;28;20034;-60
2022/07/15 09:24:50;;;;;;;4.60;1.80;;;;;;;;;;4971141;28;20040;-63
2022/07/15 09:27:37;;;;;;;4.03;1.60;;;;;;;;;;4992979;28;20042;-62
2022/07/15 09:33:40;;;;;;;4.72;1.85;;;;;;;;;;4978413;28;20082;-63
2022/07/15 09:36:27;;;;;;;3.33;1.73;;;;;;;;;;4967362;28;20308;-62
2022/07/15 09:39:13;;;;;;;8.48;2.30;;;;;;;;;;4969039;28;20046;-63
2022/07/15 09:42:04;;;;;;;3.67;1.85;;;;;;;;;;4976382;28;20393;-63
2022/07/15 09:44:51;;;;;;;5.97;2.05;;;;;;;;;;4944255;28;20039;-63
2022/07/15 09:47:38;;;;;;;6.80;1.90;;;;;;;;;;4958540;28;20437;-76
2022/07/15 09:50:34;;;;;;;6.38;2.10;;;;;;;;;;4964618;28;20505;-66
2022/07/15 09:53:20;;;;;;;3.30;1.85;;;;;;;;;;4965546;28;20074;-63
2022/07/15 09:56:10;;;;;;;3.20;1.73;;;;;;;;;;4953189;28;20061;-64
2022/07/15 09:58:55;;;;;;;7.82;2.22;;;;;;;;;;4946086;28;20035;-64
2022/07/15 10:01:42;;;;;;;3.63;1.70;;;;;;;;;;4947375;28;20056;-64
2022/07/15 10:04:28;;;;;;;7.82;2.08;;;;;;;;;;4993966;28;20441;-63
2022/07/15 10:07:14;;;;;;;6.47;2.35;;;;;;;;;;4998525;28;20038;-73
2022/07/15 10:10:00;;;;;;;8.27;2.25;;;;;;;;;;4991234;28;20021;-64
2022/07/15 10:12:52;;;;;;;6.10;1.83;;;;;;;;;;5000843;28;20038;-65
2022/07/15 10:15:41;;;;;;;8.13;2.65;;;;;;;;;;4975167;28;20473;-64
2022/07/15 10:18:45;;;;;;;2.92;1.70;;;;;;;;;;4975625;28;20533;-64
2022/07/15 10:21:34;;;;;;;8.20;2.22;;;;;;;;;;4994212;28;20034;-63
2022/07/15 10:24:46;;;;;;;4.70;2.17;;;;;;;;;;4990590;28;20029;-72
2022/07/15 10:27:46;;;;;;;5.25;2.88;;;;;;;;;;4996376;28;20095;-62
2022/07/15 10:30:32;;;;;;;17.85;11.13;;;;;;;;;;4998251;28;20125;-63
2022/07/15 10:33:18;;;;;;;22.15;16.58;;;;;;;;;;4999864;28;20065;-64
2022/07/15 10:36:04;;;;;;;26.65;19.52;;;;;;;;;;4978165;28;20085;-65
2022/07/15 10:39:01;;;;;;;43.92;34.40;;;;;;;;;;4993797;28;20038;-64
2022/07/15 10:41:51;;;;;;;50.35;35.92;;;;;;;;;;4983388;28;20520;-73
2022/07/15 10:44:47;;;;;;;8.48;4.18;;;;;;;;;;4987562;28;20034;-65
2022/07/15 10:47:33;;;;;;;22.80;14.70;;;;;;;;;;5000374;28;20452;-64
2022/07/15 10:50:38;;;;;;;40.67;30.00;;;;;;;;;;5009043;28;20124;-67
2022/07/15 10:53:25;;;;;;;32.35;23.80;;;;;;;;;;5016686;28;20380;-71
2022/07/15 10:56:34;;;;;;;18.70;13.55;;;;;;;;;;5005498;28;20056;-66
2022/07/15 10:59:24;;;;;;;6.05;3.45;;;;;;;;;;5007902;28;20086;-67
2022/07/15 11:02:11;;;;;;;9.52;2.40;;;;;;;;;;4999645;28;20069;-68
2022/07/15 11:05:17;;;;;;;7.65;4.80;;;;;;;;;;5013503;28;20083;-70
2022/07/15 11:08:23;;;;;;;7.00;2.35;;;;;;;;;;5008189;28;20038;-77
2022/07/15 11:11:14;;;;;;;9.93;4.10;;;;;;;;;;5009635;28;20037;-75
2022/07/15 11:14:00;;;;;;;4.93;2.33;;;;;;;;;;5009084;28;20042;-81
2022/07/15 11:16:45;;;;;;;6.95;3.17;;;;;;;;;;5000053;28;20064;-77
2022/07/15 11:19:32;;;;;;;4.25;2.35;;;;;;;;;;4995949;28;20030;-66
2022/07/15 11:22:18;;;;;;;7.35;4.28;;;;;;;;;;4992762;28;20104;-70
2022/07/15 11:25:04;;;;;;;7.32;3.10;;;;;;;;;;5001479;28;20408;-70
2022/07/15 11:27:57;;;;;;;5.28;2.60;;;;;;;;;;5007424;28;20036;-65
2022/07/15 11:30:53;;;;;;;10.80;5.97;;;;;;;;;;4999881;28;20025;-64
2022/07/15 11:33:39;;;;;;;6.25;2.90;;;;;;;;;;5003071;28;20033;-65
2022/07/15 11:36:25;;;;;;;7.95;3.65;;;;;;;;;;5009111;28;20041;-69
2022/07/15 11:39:10;;;;;;;9.27;2.72;;;;;;;;;;5001639;28;20041;-62
2022/07/15 11:45:00;;;;;;;5.90;2.50;;;;;;;;;;5010496;28;20455;-76
2022/07/15 11:47:53;;;;;;;3.65;2.20;;;;;;;;;;5000595;28;20667;-75
2022/07/15 11:50:48;;;;;;;7.10;2.20;;;;;;;;;;5014123;28;20140;-75
2022/07/15 11:53:35;;;;;;;7.63;3.22;;;;;;;;;;5009963;28;20046;-76
2022/07/15 11:56:21;;;;;;;9.82;2.78;;;;;;;;;;4995433;28;20049;-65
2022/07/15 11:59:06;;;;;;;7.20;3.83;;;;;;;;;;5007714;28;20096;-65
2022/07/15 12:02:05;;;;;;;7.80;2.60;;;;;;;;;;5008903;28;20404;-66
2022/07/15 12:04:51;;;;;;;;;;;;;;;;;;5014391;28;20041;-65
2022/07/15 12:07:41;;;;;;;3.90;2.25;;;;;;;;;;5013052;28;19917;-63
2022/07/15 12:10:33;;;;;;;5.47;2.00;;;;;;;;;;5013397;28;20120;-65
2022/07/15 12:13:19;;;;;;;7.15;2.20;;;;;;;;;;4996672;28;20038;-64
2022/07/15 12:16:05;;;;;;;5.88;2.15;;;;;;;;;;4997573;28;20104;-66
2022/07/15 12:18:52;;;;;;;3.95;2.03;;;;;;;;;;4993537;28;20030;-70
2022/07/15 12:21:38;;;;;;;6.00;2.20;;;;;;;;;;4992212;28;20029;-71
2022/07/15 12:24:25;;;;;;;5.45;1.98;;;;;;;;;;4995825;28;20057;-71
2022/07/15 12:27:12;;;;;;;5.63;2.70;;;;;;;;;;4996803;28;20112;-70
2022/07/15 12:30:02;;;;;;;5.68;2.40;;;;;;;;;;4999209;28;20473;-71
2022/07/15 12:32:48;;;;;;;4.65;1.80;;;;;;;;;;4992242;28;20054;-70
2022/07/15 12:35:33;;;;;;;7.10;2.35;;;;;;;;;;4996478;28;20400;-64
2022/07/15 12:38:29;;;;;;;6.10;2.97;;;;;;;;;;4990533;28;20036;-66
2022/07/15 12:41:24;;;;;;;6.38;2.53;;;;;;;;;;4995251;28;20030;-65
2022/07/15 12:44:10;;;;;;;8.52;2.65;;;;;;;;;;4987101;28;20103;-63
2022/07/15 12:46:57;;;;;;;7.75;2.03;;;;;;;;;;5009505;28;20033;-66
2022/07/15 12:49:49;;;;;;;5.80;2.63;;;;;;;;;;5006315;28;20536;-63
2022/07/15 12:52:36;;;;;;;6.25;2.63;;;;;;;;;;5006831;28;20038;-75
2022/07/15 12:55:24;;;;;;;7.07;2.22;;;;;;;;;;5004737;28;20049;-65
2022/07/15 12:58:10;;;;;;;5.32;2.45;;;;;;;;;;5014922;28;20045;-64
2022/07/15 13:01:05;;;;;;;4.80;2.55;;;;;;;;;;4986832;28;20093;-68
2022/07/15 13:03:52;;;;;;;4.60;1.98;;;;;;;;;;4998626;28;20338;-64
2022/07/15 13:06:37;;;;;;;6.47;2.10;;;;;;;;;;5004942;28;20116;-65
2022/07/15 13:09:23;;;;;;;9.25;2.45;;;;;;;;;;5010057;28;20037;-66
2022/07/15 13:12:10;;;;;;;4.95;2.35;;;;;;;;;;5012109;28;20033;-67
2022/07/15 13:14:55;;;;;;;5.07;2.05;;;;;;;;;;5000261;28;20030;-68
2022/07/15 13:17:41;;;;;;;3.65;2.25;;;;;;;;;;4997215;28;20044;-68
2022/07/15 13:20:27;;;;;;;8.18;2.15;;;;;;;;;;5009096;28;20108;-68
2022/07/15 13:23:13;;;;;;;5.70;2.08;;;;;;;;;;5006439;28;20064;-68
2022/07/15 13:25:59;;;;;;;6.05;2.15;;;;;;;;;;5010817;28;20334;-67
2022/07/15 13:28:44;;;;;;;4.93;1.90;;;;;;;;;;4988789;28;20029;-72
2022/07/15 13:31:30;;;;;;;8.23;2.20;;;;;;;;;;5007312;28;20029;-62
2022/07/15 13:34:15;;;;;;;6.72;2.85;;;;;;;;;;4980111;28;20104;-62
2022/07/15 13:37:01;;;;;;;5.07;2.63;;;;;;;;;;4992046;28;20505;-63
2022/07/15 13:39:46;;;;;;;6.65;2.45;;;;;;;;;;4974274;28;25201;-65
2022/07/15 13:42:33;;;;;;;6.55;2.40;;;;;;;;;;4994928;28;20041;-65
2022/07/15 13:45:19;;;;;;;3.47;1.95;;;;;;;;;;4972821;28;20038;-64
2022/07/15 13:48:04;;;;;;;7.00;2.30;;;;;;;;;;4972391;28;20508;-73
2022/07/15 13:53:55;;;;;;;4.60;2.50;;;;;;;;;;4908639;28;20051;-69
2022/07/15 13:56:41;;;;;;;8.68;2.03;;;;;;;;;;4948787;28;20066;-69
2022/07/15 13:59:26;;;;;;;7.30;2.10;;;;;;;;;;4934074;28;20062;-72
2022/07/15 14:02:12;;;;;;;5.97;2.10;;;;;;;;;;4943177;28;20037;-70
2022/07/15 14:04:58;;;;;;;5.75;2.22;;;;;;;;;;4947171;28;20303;-65
2022/07/15 14:07:44;;;;;;;6.97;2.28;;;;;;;;;;4967981;28;20031;-70
2022/07/15 14:10:30;;;;;;;3.85;1.80;;;;;;;;;;4942190;28;20129;-70
2022/07/15 14:13:15;;;;;;;3.72;2.00;;;;;;;;;;4979636;28;20027;-67
2022/07/15 14:16:01;;;;;;;7.00;1.92;;;;;;;;;;4970508;28;20031;-68
2022/07/15 14:18:47;;;;;;;3.33;1.85;;;;;;;;;;4988846;28;20445;-65
2022/07/15 14:21:32;;;;;;;7.40;2.33;;;;;;;;;;4994352;28;23227;-68
2022/07/15 14:24:18;;;;;;;3.15;1.80;;;;;;;;;;4994359;28;20121;-79
2022/07/15 14:27:04;;;;;;;3.15;1.70;;;;;;;;;;4992106;28;20050;-71
2022/07/15 14:29:49;;;;;;;5.68;2.70;;;;;;;;;;4986645;28;20388;-69
2022/07/15 14:32:35;;;;;;;6.05;2.33;;;;;;;;;;5005727;28;20041;-72
2022/07/15 14:35:24;;;;;;;10.57;2.67;;;;;;;;;;4998584;28;20041;-70
2022/07/15 14:38:10;;;;;;;5.63;2.20;;;;;;;;;;4985723;28;20030;-70
2022/07/15 14:40:56;;;;;;;5.43;2.65;;;;;;;;;;4975292;28;20061;-72
2022/07/15 14:43:42;;;;;;;12.90;2.75;;;;;;;;;;4989004;28;20022;-77
2022/07/15 14:46:28;;;;;;;7.35;2.53;;;;;;;;;;4983528;28;20037;-64
2022/07/15 14:49:13;;;;;;;7.07;2.30;;;;;;;;;;4992231;28;20062;-63
2022/07/15 14:51:59;;;;;;;7.30;2.17;;;;;;;;;;4987312;28;20022;-64
2022/07/15 14:54:44;;;;;;;7.53;2.60;;;;;;;;;;5004187;28;20045;-61
2022/07/15 14:57:30;;;;;;;7.60;2.15;;;;;;;;;;4989597;28;20092;-61
2022/07/15 15:00:16;;;;;;;3.47;2.03;;;;;;;;;;4998113;28;20034;-62
2022/07/15 15:03:01;;;;;;;5.00;2.20;;;;;;;;;;4990061;28;20408;-60
2022/07/15 15:05:47;;;;;;;8.45;2.85;;;;;;;;;;4982856;28;20029;-59
2022/07/15 15:08:32;;;;;;;4.10;1.92;;;;;;;;;;4990933;28;20124;-61
2022/07/15 15:11:18;;;;;;;3.53;2.20;;;;;;;;;;4999008;28;21106;-61
2022/07/15 15:14:04;;;;;;;4.70;2.17;;;;;;;;;;5010775;28;20084;-61
2022/07/15 15:16:49;;;;;;;4.47;2.30;;;;;;;;;;5001917;28;20120;-63
2022/07/15 15:19:35;;;;;;;2.50;1.88;;;;;;;;;;5010837;28;20037;-61
2022/07/15 15:22:21;;;;;;;7.60;2.40;;;;;;;;;;5013514;28;20116;-66
2022/07/15 15:25:07;;;;;;;5.47;2.30;;;;;;;;;;5016744;28;20038;-65
2022/07/15 15:27:52;;;;;;;6.30;2.42;;;;;;;;;;5005146;28;20485;-65
2022/07/15 15:30:38;;;;;;;5.82;2.00;;;;;;;;;;5015112;28;20095;-67
2022/07/15 15:33:23;;;;;;;4.20;2.17;;;;;;;;;;5009143;28;20034;-65
2022/07/15 15:36:09;;;;;;;5.80;2.05;;;;;;;;;;4993000;28;20117;-59
2022/07/15 15:38:55;;;;;;;3.95;1.80;;;;;;;;;;5015107;28;20018;-61
2022/07/15 15:41:41;;;;;;;2.30;1.83;;;;;;;;;;4996487;28;20112;-67
2022/07/15 15:44:27;;;;;;;5.80;2.38;;;;;;;;;;5010643;28;20058;-62
2022/07/15 15:47:13;;;;;;;4.43;2.15;;;;;;;;;;5015237;28;20029;-62
2022/07/15 15:49:58;;;;;;;6.57;2.15;;;;;;;;;;5002133;28;20034;-62
2022/07/15 15:52:44;;;;;;;3.53;1.98;;;;;;;;;;4982624;28;20109;-62
2022/07/15 15:55:29;;;;;;;6.50;2.30;;;;;;;;;;4989540;28;20478;-67
2022/07/15 15:58:15;;;;;;;6.70;2.28;;;;;;;;;;4981740;28;20037;-63
2022/07/15 16:01:01;;;;;;;5.15;2.30;;;;;;;;;;5011063;28;20484;-64
2022/07/15 16:03:46;;;;;;;8.32;3.30;;;;;;;;;;4994900;28;20037;-63
2022/07/15 16:06:32;;;;;;;8.77;2.22;;;;;;;;;;4983108;28;20397;-63
2022/07/15 16:09:17;;;;;;;4.47;1.92;;;;;;;;;;4977757;28;20102;-64
2022/07/15 16:12:03;;;;;;;5.70;1.90;;;;;;;;;;4972577;28;20030;-64
2022/07/15 16:14:49;;;;;;;6.50;2.08;;;;;;;;;;4980786;28;20550;-74
2022/07/15 16:17:34;;;;;;;6.68;2.95;;;;;;;;;;4924961;28;20046;-61
2022/07/15 16:20:20;;;;;;;3.90;2.10;;;;;;;;;;4975590;28;20035;-62
2022/07/15 16:23:06;;;;;;;3.65;2.13;;;;;;;;;;4942810;28;20055;-62
2022/07/15 16:25:51;;;;;;;3.17;1.92;;;;;;;;;;4946968;28;20049;-63
2022/07/15 16:28:37;;;;;;;5.78;2.22;;;;;;;;;;4980007;28;20042;-63
2022/07/15 16:31:23;;;;;;;4.88;2.83;;;;;;;;;;4961511;28;20045;-63
2022/07/15 16:34:08;;;;;;;4.30;2.30;;;;;;;;;;4963811;28;20041;-59
2022/07/15 16:36:54;;;;;;;3.55;1.75;;;;;;;;;;4945204;28;20045;-61
2022/07/15 16:39:39;;;;;;;9.15;2.03;;;;;;;;;;4984593;28;20062;-62
2022/07/15 16:42:25;;;;;;;6.57;2.25;;;;;;;;;;4991630;28;20084;-62
2022/07/15 16:45:11;;;;;;;4.95;2.30;;;;;;;;;;4984111;28;20042;-60
2022/07/15 16:47:56;;;;;;;3.85;2.60;;;;;;;;;;4971584;28;20066;-61
2022/07/15 16:50:42;;;;;;;6.43;2.28;;;;;;;;;;4970490;28;20058;-59
2022/07/15 16:53:28;;;;;;;3.53;2.28;;;;;;;;;;4951707;28;20308;-60